Time;durP1;ratioP1;P1;durP2;ratioP2;P2;SDS_P1;SDS_P2;PMS_P1;PMS_P2;Temp;Humidity;BMP_temperature;BMP_pressure;BME280_temperature;BME280_humidity;BME280_pressure;Samples;Min_cycle;Max_cycle;Signal;HPM_P1;HPM_P2
2020/12/30 00:00:23;;;;;;;;;;;3.80;99.90;;;;;;10485134;28;19920;-68
2020/12/30 00:05:25;;;;;;;;;;;3.80;99.90;;;;;;10466132;28;19994;-68
2020/12/30 00:10:26;;;;;;;;;;;3.60;99.90;;;;;;10467615;28;19921;-68
2020/12/30 00:15:27;;;;;;;;;;;3.60;99.90;;;;;;10483528;28;19988;-69
2020/12/30 00:20:29;;;;;;;;;;;3.60;99.90;;;;;;10485697;28;19966;-68
2020/12/30 00:25:30;;;;;;;;;;;3.70;99.90;;;;;;10484355;28;20039;-68
2020/12/30 00:30:31;;;;;;;;;;;3.70;99.90;;;;;;10491234;28;19928;-68
2020/12/30 00:35:33;;;;;;;;;;;3.60;99.90;;;;;;10491389;28;20015;-68
2020/12/30 00:40:34;;;;;;;;;;;3.60;99.90;;;;;;10493194;28;19928;-68
2020/12/30 00:45:35;;;;;;;;;;;3.50;99.90;;;;;;10475952;28;20000;-68
2020/12/30 00:50:37;;;;;;;;;;;3.40;99.90;;;;;;10472477;28;20026;-68
2020/12/30 00:55:38;;;;;;;;;;;3.40;99.90;;;;;;10486347;28;19920;-69
2020/12/30 01:00:39;;;;;;;;;;;3.30;99.90;;;;;;10471345;28;19950;-68
2020/12/30 01:05:41;;;;;;;;;;;3.40;99.90;;;;;;10490527;28;19924;-69
2020/12/30 01:10:42;;;;;;;;;;;3.40;99.90;;;;;;10492070;28;19921;-68
2020/12/30 01:15:43;;;;;;;;;;;3.30;99.90;;;;;;10489863;28;19939;-68
2020/12/30 01:20:45;;;;;;;;;;;3.40;99.90;;;;;;10490914;28;20031;-68
2020/12/30 01:25:53;;;;;;;;;;;3.40;99.90;;;;;;10489787;28;19925;-68
2020/12/30 01:30:55;;;;;;;;;;;3.30;99.90;;;;;;10490962;28;20003;-68
2020/12/30 01:35:56;;;;;;;;;;;3.40;99.90;;;;;;10483380;28;19971;-68
2020/12/30 01:40:57;;;;;;;;;;;3.50;99.90;;;;;;10482578;28;19951;-68
2020/12/30 01:45:59;;;;;;;;;;;3.40;99.90;;;;;;10482583;28;19960;-69
2020/12/30 01:51:00;;;;;;;;;;;3.30;99.90;;;;;;10480559;28;20364;-68
2020/12/30 01:56:01;;;;;;;;;;;3.40;99.90;;;;;;10490413;28;19924;-68
2020/12/30 02:01:03;;;;;;;;;;;3.30;99.90;;;;;;10490969;28;19936;-68
2020/12/30 02:06:04;;;;;;;;;;;3.40;99.90;;;;;;10489245;28;19948;-68
2020/12/30 02:11:05;;;;;;;;;;;3.40;99.90;;;;;;10488767;28;19967;-68
2020/12/30 02:16:07;;;;;;;;;;;3.50;99.90;;;;;;10490132;28;20435;-68
2020/12/30 02:21:28;;;;;;;;;;;3.40;99.90;;;;;;10472523;28;20002;-68
2020/12/30 02:26:29;;;;;;;;;;;3.50;99.90;;;;;;10479158;28;20042;-68
2020/12/30 02:31:31;;;;;;;;;;;3.60;99.90;;;;;;10489332;28;19931;-68
2020/12/30 02:36:33;;;;;;;;;;;3.60;99.90;;;;;;10489656;28;19950;-68
2020/12/30 02:41:34;;;;;;;;;;;3.70;99.90;;;;;;10489101;28;20434;-68
2020/12/30 02:46:35;;;;;;;;;;;3.70;99.90;;;;;;10488077;28;20011;-68
2020/12/30 02:51:41;;;;;;;;;;;3.70;99.90;;;;;;10488091;28;20393;-68
2020/12/30 02:56:43;;;;;;;;;;;3.70;99.90;;;;;;10487112;28;19970;-68
2020/12/30 03:01:44;;;;;;;;;;;3.80;99.90;;;;;;10490336;28;20035;-68
2020/12/30 03:06:45;;;;;;;;;;;3.80;99.90;;;;;;10496341;28;19956;-68
2020/12/30 03:11:48;;;;;;;;;;;3.80;99.90;;;;;;10496506;28;19999;-68
2020/12/30 03:16:49;;;;;;;;;;;3.80;99.90;;;;;;10495607;28;19920;-68
2020/12/30 03:21:52;;;;;;;;;;;3.90;99.90;;;;;;10495951;28;19920;-69
2020/12/30 03:26:54;;;;;;;;;;;3.90;99.90;;;;;;10495886;28;19934;-68
2020/12/30 03:31:55;;;;;;;;;;;4.00;99.90;;;;;;10495815;28;20007;-70
2020/12/30 03:36:56;;;;;;;;;;;4.10;99.90;;;;;;10494392;28;20411;-69
2020/12/30 03:41:58;;;;;;;;;;;4.10;99.90;;;;;;10495684;28;19920;-68
2020/12/30 03:47:00;;;;;;;;;;;4.00;99.90;;;;;;10495152;28;19973;-68
2020/12/30 03:52:02;;;;;;;;;;;4.00;99.90;;;;;;10494970;28;20001;-68
2020/12/30 03:57:03;;;;;;;;;;;4.10;99.90;;;;;;10495143;28;19959;-68
2020/12/30 04:02:04;;;;;;;;;;;4.20;99.90;;;;;;10493273;28;19920;-68
2020/12/30 04:07:06;;;;;;;;;;;4.10;99.90;;;;;;10489384;28;19920;-68
2020/12/30 04:12:07;;;;;;;;;;;4.10;99.90;;;;;;10487536;28;19920;-68
2020/12/30 04:17:09;;;;;;;;;;;4.20;99.90;;;;;;10486776;28;19982;-68
2020/12/30 04:22:10;;;;;;;;;;;4.20;99.90;;;;;;10487147;28;19920;-69
2020/12/30 04:27:12;;;;;;;;;;;4.30;99.90;;;;;;10486886;28;19920;-68
2020/12/30 04:32:13;;;;;;;;;;;4.30;99.90;;;;;;10486813;28;19989;-68
2020/12/30 04:37:15;;;;;;;;;;;4.30;99.90;;;;;;10487051;28;19920;-68
2020/12/30 04:42:21;;;;;;;;;;;4.20;99.90;;;;;;10487522;28;19990;-68
2020/12/30 04:47:24;;;;;;;;;;;4.20;99.90;;;;;;10486899;28;20311;-68
2020/12/30 04:52:27;;;;;;;;;;;4.10;99.90;;;;;;10486429;28;19921;-68
2020/12/30 04:57:37;;;;;;;;;;;4.20;99.90;;;;;;10486381;28;20005;-68
2020/12/30 05:02:46;;;;;;;;;;;4.30;99.90;;;;;;10486636;28;19966;-68
2020/12/30 05:07:48;;;;;;;;;;;4.30;99.90;;;;;;10488728;28;19920;-68
2020/12/30 05:12:52;;;;;;;;;;;4.30;99.90;;;;;;10493106;28;19990;-68
2020/12/30 05:17:53;;;;;;;;;;;4.40;99.90;;;;;;10493143;28;19920;-69
2020/12/30 05:22:55;;;;;;;;;;;4.40;99.90;;;;;;10493369;28;19928;-68
2020/12/30 05:27:57;;;;;;;;;;;4.40;99.90;;;;;;10493299;28;19959;-68
2020/12/30 05:32:59;;;;;;;;;;;4.40;99.90;;;;;;10490598;28;20369;-69
2020/12/30 05:38:01;;;;;;;;;;;4.50;99.90;;;;;;10492763;28;19971;-68
2020/12/30 05:43:10;;;;;;;;;;;4.50;99.90;;;;;;10492625;28;19967;-68
2020/12/30 05:48:12;;;;;;;;;;;4.50;99.90;;;;;;10492153;28;19924;-68
2020/12/30 05:53:14;;;;;;;;;;;4.50;99.90;;;;;;10490857;28;20019;-68
2020/12/30 05:58:16;;;;;;;;;;;4.50;99.90;;;;;;10491574;28;19960;-68
2020/12/30 06:03:26;;;;;;;;;;;4.50;99.90;;;;;;10492555;28;19927;-69
2020/12/30 06:08:29;;;;;;;;;;;4.50;99.90;;;;;;10491991;28;19920;-69
2020/12/30 06:13:34;;;;;;;;;;;4.60;99.90;;;;;;10490935;28;19999;-70
2020/12/30 06:18:36;;;;;;;;;;;4.50;99.90;;;;;;10490018;28;19977;-69
2020/12/30 06:23:38;;;;;;;;;;;4.50;99.90;;;;;;10491413;28;20499;-69
2020/12/30 06:28:40;;;;;;;;;;;4.60;99.90;;;;;;10489106;28;19920;-69
2020/12/30 06:33:41;;;;;;;;;;;4.60;99.90;;;;;;10490438;28;20007;-68
2020/12/30 06:38:42;;;;;;;;;;;4.70;99.90;;;;;;10490495;28;19960;-69
2020/12/30 06:43:46;;;;;;;;;;;4.70;99.90;;;;;;10490072;28;19931;-69
2020/12/30 06:48:52;;;;;;;;;;;4.60;99.90;;;;;;10488927;28;19928;-69
2020/12/30 06:53:53;;;;;;;;;;;4.70;99.90;;;;;;10489518;28;19970;-69
2020/12/30 06:58:56;;;;;;;;;;;4.70;99.90;;;;;;10489227;28;19971;-70
2020/12/30 07:04:06;;;;;;;;;;;4.60;99.90;;;;;;10489411;28;19969;-69
2020/12/30 07:09:07;;;;;;;;;;;4.70;99.90;;;;;;10489328;28;20360;-69
2020/12/30 07:14:21;;;;;;;;;;;4.80;99.90;;;;;;10488907;28;19967;-69
2020/12/30 07:19:24;;;;;;;;;;;4.70;99.90;;;;;;10488547;28;19924;-69
2020/12/30 07:24:29;;;;;;;;;;;4.70;99.90;;;;;;10489014;28;19956;-68
2020/12/30 07:29:31;;;;;;;;;;;4.70;99.90;;;;;;10461489;28;19920;-69
2020/12/30 07:34:33;;;;;;;;;;;4.70;99.90;;;;;;10474684;28;19935;-68
2020/12/30 07:39:39;;;;;;;;;;;4.80;99.90;;;;;;10488534;28;20338;-69
2020/12/30 07:44:47;;;;;;;;;;;4.80;99.90;;;;;;10487933;28;19920;-68
2020/12/30 07:49:49;;;;;;;;;;;4.70;99.90;;;;;;10488250;28;20453;-68
2020/12/30 07:54:50;;;;;;;;;;;4.50;99.90;;;;;;10488137;28;20007;-69
2020/12/30 07:59:51;;;;;;;;;;;4.50;99.90;;;;;;10487452;28;19974;-69
2020/12/30 08:04:59;;;;;;;;;;;4.70;99.90;;;;;;10488186;28;19920;-69
2020/12/30 08:10:05;;;;;;;;;;;4.80;99.90;;;;;;10447697;28;19921;-69
2020/12/30 08:15:11;;;;;;;;;;;4.90;99.90;;;;;;10487013;28;20357;-69
2020/12/30 08:20:14;;;;;;;;;;;5.10;99.90;;;;;;10474918;28;20339;-69
2020/12/30 08:25:16;;;;;;;;;;;5.20;99.90;;;;;;10453795;28;19963;-70
2020/12/30 08:30:17;;;;;;;;;;;5.20;99.90;;;;;;10443695;28;20578;-69
2020/12/30 08:35:20;;;;;;;;;;;5.30;99.90;;;;;;10442541;28;19927;-70
2020/12/30 08:40:23;;;;;;;;;;;5.40;99.90;;;;;;10435689;28;19929;-69
2020/12/30 08:45:26;;;;;;;;;;;5.40;99.90;;;;;;10449423;28;19995;-69
2020/12/30 08:50:28;;;;;;;;;;;5.50;99.90;;;;;;10450528;28;19963;-70
2020/12/30 08:55:29;;;;;;;;;;;5.60;99.90;;;;;;10451135;28;19928;-70
2020/12/30 09:00:35;;;;;;;;;;;5.70;99.90;;;;;;10450814;28;20015;-72
2020/12/30 09:05:36;;;;;;;;;;;5.70;99.90;;;;;;10450626;28;20325;-70
2020/12/30 09:10:38;;;;;;;;;;;5.60;99.90;;;;;;10450103;28;20339;-69
2020/12/30 09:15:40;;;;;;;;;;;5.70;99.90;;;;;;10444698;28;20004;-70
2020/12/30 09:20:41;;;;;;;;;;;5.90;99.90;;;;;;10423606;28;20008;-70
2020/12/30 09:25:43;;;;;;;;;;;5.90;99.90;;;;;;10450543;28;19921;-70
2020/12/30 09:30:45;;;;;;;;;;;6.10;99.90;;;;;;10439611;28;20366;-70
2020/12/30 09:35:47;;;;;;;;;;;6.20;99.90;;;;;;10428484;28;20019;-69
2020/12/30 09:40:49;;;;;;;;;;;6.20;99.90;;;;;;10431732;28;20011;-70
2020/12/30 09:46:01;;;;;;;;;;;6.20;99.90;;;;;;10435854;28;20019;-70
2020/12/30 09:51:04;;;;;;;;;;;6.50;99.90;;;;;;10435771;28;19921;-70
2020/12/30 09:56:12;;;;;;;;;;;6.50;99.90;;;;;;10443814;28;19924;-70
2020/12/30 10:01:13;;;;;;;;;;;6.50;99.90;;;;;;10441989;28;20017;-70
2020/12/30 10:06:14;;;;;;;;;;;6.50;99.90;;;;;;10437751;28;20358;-70
2020/12/30 10:11:16;;;;;;;;;;;6.50;99.90;;;;;;10437567;28;19921;-70
2020/12/30 10:16:19;;;;;;;;;;;6.50;99.90;;;;;;10427283;28;19963;-70
2020/12/30 10:21:26;;;;;;;;;;;6.60;99.90;;;;;;10426507;28;19956;-69
2020/12/30 10:26:28;;;;;;;;;;;6.60;99.90;;;;;;10437323;28;19924;-69
2020/12/30 10:31:29;;;;;;;;;;;6.70;99.90;;;;;;10439425;28;20011;-70
2020/12/30 10:36:32;;;;;;;;;;;6.80;99.90;;;;;;10443690;28;20023;-70
2020/12/30 10:41:33;;;;;;;;;;;6.90;99.90;;;;;;10446058;28;19921;-70
2020/12/30 10:46:35;;;;;;;;;;;7.00;99.90;;;;;;10446510;28;20441;-71
2020/12/30 10:51:37;;;;;;;;;;;7.10;99.90;;;;;;10446207;28;20012;-69
2020/12/30 10:56:39;;;;;;;;;;;7.20;99.90;;;;;;10446503;28;19920;-69
2020/12/30 11:01:41;;;;;;;;;;;7.30;99.80;;;;;;10446412;28;19927;-69
2020/12/30 11:06:42;;;;;;;;;;;7.30;99.80;;;;;;10445587;28;20026;-69
2020/12/30 11:11:44;;;;;;;;;;;7.30;99.80;;;;;;10446011;28;19960;-69
2020/12/30 11:16:49;;;;;;;;;;;7.10;99.80;;;;;;10445507;28;19921;-70
2020/12/30 11:21:51;;;;;;;;;;;7.10;99.70;;;;;;10414117;28;19921;-70
2020/12/30 11:26:52;;;;;;;;;;;7.10;99.40;;;;;;10423126;28;19964;-70
2020/12/30 11:31:54;;;;;;;;;;;7.10;99.50;;;;;;10445308;28;19952;-69
2020/12/30 11:36:55;;;;;;;;;;;7.20;99.70;;;;;;10444013;28;20395;-70
2020/12/30 11:41:56;;;;;;;;;;;7.30;99.90;;;;;;10444326;28;20397;-70
2020/12/30 11:46:58;;;;;;;;;;;7.40;99.80;;;;;;10444274;28;19966;-71
2020/12/30 11:51:59;;;;;;;;;;;7.60;99.20;;;;;;10444383;28;19974;-70
2020/12/30 11:57:00;;;;;;;;;;;7.70;98.30;;;;;;10442932;28;20007;-70
2020/12/30 12:02:02;;;;;;;;;;;7.60;97.90;;;;;;10444076;28;20020;-70
2020/12/30 12:07:04;;;;;;;;;;;7.50;98.10;;;;;;10421141;28;19936;-70
2020/12/30 12:12:05;;;;;;;;;;;7.50;97.60;;;;;;10419304;28;19921;-70
2020/12/30 12:17:06;;;;;;;;;;;7.40;97.40;;;;;;10445708;28;19964;-70
2020/12/30 12:22:08;;;;;;;;;;;7.30;97.00;;;;;;10425282;28;19920;-70
2020/12/30 12:27:09;;;;;;;;;;;7.30;96.80;;;;;;10431324;28;20011;-70
2020/12/30 12:32:14;;;;;;;;;;;7.20;96.70;;;;;;10427876;28;19957;-70
2020/12/30 12:37:16;;;;;;;;;;;7.40;96.20;;;;;;10421319;28;19925;-70
2020/12/30 12:42:18;;;;;;;;;;;7.20;96.60;;;;;;10451331;28;19968;-70
2020/12/30 12:47:19;;;;;;;;;;;7.40;96.10;;;;;;10451287;28;20015;-70
2020/12/30 12:52:21;;;;;;;;;;;7.40;95.70;;;;;;10449686;28;19920;-71
2020/12/30 12:57:22;;;;;;;;;;;7.30;95.40;;;;;;10450674;28;19925;-70
2020/12/30 13:02:23;;;;;;;;;;;7.20;94.50;;;;;;10450972;28;20016;-70
2020/12/30 13:07:25;;;;;;;;;;;7.00;95.50;;;;;;10450192;28;19921;-70
2020/12/30 13:12:26;;;;;;;;;;;6.90;95.20;;;;;;10450256;28;19968;-70
2020/12/30 13:17:27;;;;;;;;;;;6.80;94.80;;;;;;10450751;28;19920;-70
2020/12/30 13:22:28;;;;;;;;;;;6.90;95.00;;;;;;10431800;28;20039;-69
2020/12/30 13:27:33;;;;;;;;;;;7.00;94.50;;;;;;10435283;28;20412;-70
2020/12/30 13:32:34;;;;;;;;;;;7.10;93.60;;;;;;10438633;28;19972;-70
2020/12/30 13:37:36;;;;;;;;;;;7.00;93.20;;;;;;10423005;28;19968;-70
2020/12/30 13:42:37;;;;;;;;;;;7.00;93.50;;;;;;10432732;28;20015;-70
2020/12/30 13:47:38;;;;;;;;;;;7.00;92.70;;;;;;10442261;28;19927;-70
2020/12/30 13:52:40;;;;;;;;;;;6.80;92.80;;;;;;10436156;28;20007;-70
2020/12/30 13:57:41;;;;;;;;;;;6.70;92.60;;;;;;10448464;28;20011;-70
2020/12/30 14:02:42;;;;;;;;;;;6.70;92.90;;;;;;10449010;28;19998;-71
2020/12/30 14:07:44;;;;;;;;;;;6.80;92.80;;;;;;10448224;28;20454;-70
2020/12/30 14:12:45;;;;;;;;;;;6.90;92.60;;;;;;10448178;28;20467;-71
2020/12/30 14:17:47;;;;;;;;;;;6.60;92.00;;;;;;10448102;28;20015;-70
2020/12/30 14:22:48;;;;;;;;;;;6.60;92.10;;;;;;10438887;28;19974;-71
2020/12/30 14:27:51;;;;;;;;;;;6.60;92.20;;;;;;10444547;28;20015;-71
2020/12/30 14:32:53;;;;;;;;;;;6.50;91.90;;;;;;10446539;28;19924;-71
2020/12/30 14:37:54;;;;;;;;;;;6.40;90.70;;;;;;10447037;28;19927;-69
2020/12/30 14:42:55;;;;;;;;;;;6.40;90.80;;;;;;10417517;28;20003;-71
2020/12/30 14:47:57;;;;;;;;;;;6.40;90.70;;;;;;10442126;28;19971;-70
2020/12/30 14:52:58;;;;;;;;;;;6.40;91.10;;;;;;10445598;28;19921;-72
2020/12/30 14:57:59;;;;;;;;;;;6.40;91.10;;;;;;10420432;28;20380;-72
2020/12/30 15:03:01;;;;;;;;;;;6.40;91.30;;;;;;10403051;28;20412;-72
2020/12/30 15:08:02;;;;;;;;;;;6.40;91.20;;;;;;10404735;28;20262;-72
2020/12/30 15:13:03;;;;;;;;;;;6.40;91.30;;;;;;10404063;28;20421;-72
2020/12/30 15:18:05;;;;;;;;;;;6.60;91.60;;;;;;10404190;28;20412;-72
2020/12/30 15:23:06;;;;;;;;;;;6.60;91.50;;;;;;10404566;28;19972;-73
2020/12/30 15:28:08;;;;;;;;;;;6.60;91.80;;;;;;10443109;28;19990;-72
2020/12/30 15:33:11;;;;;;;;;;;6.50;92.10;;;;;;10444385;28;19983;-72
2020/12/30 15:38:12;;;;;;;;;;;6.50;92.30;;;;;;10444298;28;19958;-72
2020/12/30 15:43:13;;;;;;;;;;;6.50;92.70;;;;;;10444251;28;20007;-72
2020/12/30 15:48:15;;;;;;;;;;;6.50;92.70;;;;;;10444905;28;20427;-72
2020/12/30 15:53:17;;;;;;;;;;;6.40;93.10;;;;;;10435798;28;19932;-71
2020/12/30 15:58:18;;;;;;;;;;;6.40;93.50;;;;;;10402883;28;20364;-72
2020/12/30 16:03:19;;;;;;;;;;;6.40;94.00;;;;;;10408092;28;19963;-73
2020/12/30 16:08:20;;;;;;;;;;;6.40;94.20;;;;;;10429994;28;19967;-70
2020/12/30 16:13:22;;;;;;;;;;;6.40;94.20;;;;;;10409141;28;20425;-72
2020/12/30 16:18:23;;;;;;;;;;;6.40;94.50;;;;;;10443413;28;20011;-72
2020/12/30 16:23:24;;;;;;;;;;;6.40;94.40;;;;;;10441888;28;20002;-72
2020/12/30 16:28:26;;;;;;;;;;;6.40;94.50;;;;;;10441725;28;19929;-72
2020/12/30 16:33:27;;;;;;;;;;;6.40;94.40;;;;;;10417148;28;20326;-71
2020/12/30 16:38:29;;;;;;;;;;;6.30;94.50;;;;;;10442258;28;20395;-70
2020/12/30 16:43:31;;;;;;;;;;;6.30;94.50;;;;;;10442624;28;20035;-71
2020/12/30 16:48:34;;;;;;;;;;;6.40;94.50;;;;;;10411729;28;20016;-69
2020/12/30 16:53:36;;;;;;;;;;;6.30;94.50;;;;;;10442945;28;20352;-69
2020/12/30 16:58:37;;;;;;;;;;;6.30;94.80;;;;;;10443330;28;19958;-69
2020/12/30 17:03:41;;;;;;;;;;;6.30;94.30;;;;;;10444661;28;20011;-69
2020/12/30 17:08:42;;;;;;;;;;;6.30;94.20;;;;;;10450814;28;20464;-69
2020/12/30 17:13:44;;;;;;;;;;;6.10;94.20;;;;;;10450459;28;20007;-69
2020/12/30 17:18:45;;;;;;;;;;;6.00;94.20;;;;;;10449432;28;19921;-69
2020/12/30 17:23:47;;;;;;;;;;;6.10;95.00;;;;;;10450223;28;19924;-69
2020/12/30 17:28:48;;;;;;;;;;;6.10;95.10;;;;;;10446244;28;19924;-69
2020/12/30 17:33:49;;;;;;;;;;;6.10;94.80;;;;;;10448376;28;19974;-68
2020/12/30 17:38:51;;;;;;;;;;;6.10;94.60;;;;;;10448955;28;19921;-68
2020/12/30 17:43:52;;;;;;;;;;;6.20;94.40;;;;;;10447989;28;20003;-68
2020/12/30 17:48:53;;;;;;;;;;;6.10;94.80;;;;;;10440181;28;19924;-69
2020/12/30 17:53:55;;;;;;;;;;;6.00;94.20;;;;;;10440987;28;19928;-69
2020/12/30 17:58:56;;;;;;;;;;;6.00;94.20;;;;;;10434778;28;20385;-68
2020/12/30 18:03:57;;;;;;;;;;;6.00;94.20;;;;;;10444036;28;20492;-69
2020/12/30 18:08:59;;;;;;;;;;;6.00;94.10;;;;;;10424912;28;20369;-69
2020/12/30 18:14:00;;;;;;;;;;;6.00;94.00;;;;;;10440421;28;19968;-69
2020/12/30 18:19:02;;;;;;;;;;;5.90;93.90;;;;;;10438836;28;20028;-68
2020/12/30 18:24:03;;;;;;;;;;;5.90;94.30;;;;;;10444973;28;19971;-69
2020/12/30 18:29:07;;;;;;;;;;;6.00;93.90;;;;;;10442624;28;19929;-68
2020/12/30 18:34:09;;;;;;;;;;;5.90;94.10;;;;;;10412844;28;19978;-68
2020/12/30 18:39:10;;;;;;;;;;;5.90;94.00;;;;;;10443587;28;20402;-69
2020/12/30 18:44:11;;;;;;;;;;;5.90;94.10;;;;;;10445236;28;19960;-68
2020/12/30 18:49:13;;;;;;;;;;;5.90;94.10;;;;;;10445819;28;19931;-68
2020/12/30 18:54:14;;;;;;;;;;;6.00;94.00;;;;;;10445556;28;19951;-68
2020/12/30 18:59:16;;;;;;;;;;;5.90;93.70;;;;;;10444314;28;19978;-69
2020/12/30 19:04:17;;;;;;;;;;;5.80;94.20;;;;;;10444727;28;20015;-68
2020/12/30 19:09:18;;;;;;;;;;;5.90;94.30;;;;;;10438238;28;19978;-68
2020/12/30 19:14:19;;;;;;;;;;;5.80;94.40;;;;;;10442539;28;19921;-68
2020/12/30 19:19:21;;;;;;;;;;;5.80;94.00;;;;;;10432240;28;20023;-68
2020/12/30 19:24:22;;;;;;;;;;;5.70;94.00;;;;;;10445004;28;19928;-68
2020/12/30 19:29:25;;;;;;;;;;;5.70;94.30;;;;;;10441019;28;19955;-68
2020/12/30 19:34:26;;;;;;;;;;;5.70;94.40;;;;;;10442433;28;19966;-68
2020/12/30 19:39:27;;;;;;;;;;;5.70;94.50;;;;;;10437535;28;19935;-68
2020/12/30 19:44:29;;;;;;;;;;;5.70;94.20;;;;;;10434088;28;19920;-68
2020/12/30 19:49:30;;;;;;;;;;;5.70;94.20;;;;;;10441512;28;20055;-68
2020/12/30 19:54:32;;;;;;;;;;;5.80;94.50;;;;;;10443547;28;20039;-68
2020/12/30 19:59:33;;;;;;;;;;;5.90;93.80;;;;;;10441155;28;19967;-68
2020/12/30 20:04:34;;;;;;;;;;;5.80;93.90;;;;;;10438663;28;20015;-68
2020/12/30 20:09:36;;;;;;;;;;;5.80;93.80;;;;;;10431794;28;19928;-68
2020/12/30 20:14:37;;;;;;;;;;;5.80;93.80;;;;;;10443308;28;19921;-68
2020/12/30 20:19:38;;;;;;;;;;;5.80;94.10;;;;;;10417786;28;20003;-68
2020/12/30 20:24:40;;;;;;;;;;;5.70;93.80;;;;;;10422710;28;19921;-69
2020/12/30 20:29:41;;;;;;;;;;;5.70;93.80;;;;;;10442379;28;20383;-69
2020/12/30 20:34:43;;;;;;;;;;;5.70;94.00;;;;;;10413491;28;19925;-69
2020/12/30 20:39:44;;;;;;;;;;;5.80;93.80;;;;;;10422806;28;20360;-69
2020/12/30 20:44:46;;;;;;;;;;;5.70;93.70;;;;;;10451773;28;19976;-69
2020/12/30 20:49:47;;;;;;;;;;;5.70;94.10;;;;;;10450056;28;20343;-69
2020/12/30 20:54:48;;;;;;;;;;;5.60;94.20;;;;;;10449351;28;20442;-70
2020/12/30 20:59:50;;;;;;;;;;;5.60;94.20;;;;;;10437527;28;19927;-69
2020/12/30 21:04:51;;;;;;;;;;;5.60;94.30;;;;;;10446595;28;20003;-70
2020/12/30 21:09:55;;;;;;;;;;;5.60;94.30;;;;;;10448344;28;19927;-70
2020/12/30 21:14:56;;;;;;;;;;;5.50;94.20;;;;;;10449464;28;19924;-70
2020/12/30 21:19:57;;;;;;;;;;;5.50;94.40;;;;;;10451321;28;20050;-69
2020/12/30 21:24:59;;;;;;;;;;;5.50;94.60;;;;;;10449431;28;20384;-69
2020/12/30 21:30:00;;;;;;;;;;;5.60;94.70;;;;;;10451225;28;19925;-69
2020/12/30 21:35:03;;;;;;;;;;;5.60;94.60;;;;;;10450671;28;19921;-69
2020/12/30 21:40:05;;;;;;;;;;;5.70;94.70;;;;;;10450409;28;19990;-69
2020/12/30 21:45:07;;;;;;;;;;;5.70;94.40;;;;;;10449906;28;19924;-69
2020/12/30 21:50:08;;;;;;;;;;;5.60;94.60;;;;;;10449338;28;19921;-70
2020/12/30 21:55:09;;;;;;;;;;;5.70;94.70;;;;;;10449491;28;19921;-69
2020/12/30 22:00:10;;;;;;;;;;;5.80;94.50;;;;;;10448378;28;20154;-69
2020/12/30 22:05:12;;;;;;;;;;;5.80;94.40;;;;;;10449926;28;20460;-69
2020/12/30 22:10:13;;;;;;;;;;;5.80;94.40;;;;;;10448799;28;20377;-69
2020/12/30 22:15:14;;;;;;;;;;;5.80;94.60;;;;;;10448736;28;20445;-69
2020/12/30 22:20:16;;;;;;;;;;;5.80;94.60;;;;;;10449394;28;20572;-69
2020/12/30 22:25:18;;;;;;;;;;;5.70;94.40;;;;;;10448399;28;20608;-69
2020/12/30 22:30:19;;;;;;;;;;;5.70;94.60;;;;;;10449359;28;20302;-69
2020/12/30 22:35:20;;;;;;;;;;;5.70;94.60;;;;;;10448060;28;19924;-70
2020/12/30 22:40:22;;;;;;;;;;;5.70;94.70;;;;;;10447032;28;20348;-69
2020/12/30 22:45:23;;;;;;;;;;;5.70;95.40;;;;;;10447422;28;20372;-69
2020/12/30 22:50:24;;;;;;;;;;;5.60;95.00;;;;;;10447571;28;20011;-68
2020/12/30 22:55:26;;;;;;;;;;;5.60;95.00;;;;;;10448098;28;19975;-69
2020/12/30 23:00:27;;;;;;;;;;;5.70;95.20;;;;;;10446122;28;19927;-69
2020/12/30 23:05:28;;;;;;;;;;;5.70;95.40;;;;;;10447372;28;20008;-69
2020/12/30 23:10:30;;;;;;;;;;;5.70;95.20;;;;;;10447193;28;19995;-69
2020/12/30 23:15:31;;;;;;;;;;;5.60;95.30;;;;;;10446922;28;19991;-69
2020/12/30 23:20:32;;;;;;;;;;;5.70;95.50;;;;;;10444812;28;19925;-69
2020/12/30 23:25:34;;;;;;;;;;;5.70;95.20;;;;;;10445439;28;19932;-69
2020/12/30 23:30:35;;;;;;;;;;;5.70;95.10;;;;;;10445466;28;19925;-69
2020/12/30 23:35:37;;;;;;;;;;;5.60;95.20;;;;;;10445403;28;19925;-69
2020/12/30 23:40:38;;;;;;;;;;;5.60;95.20;;;;;;10434991;28;19928;-71
2020/12/30 23:45:40;;;;;;;;;;;5.60;95.10;;;;;;10435946;28;20020;-70
2020/12/30 23:50:41;;;;;;;;;;;5.70;95.50;;;;;;10441928;28;19927;-69
2020/12/30 23:55:43;;;;;;;;;;;5.70;95.10;;;;;;10443782;28;19925;-70
